sensor_id;sensor_type;location;lat;lon;timestamp;P1;durP1;ratioP1;P2;durP2;ratioP2
44842;SDS011;31884;52.538;13.820;2023-02-15T00:01:26;41.53;;;16.65;;
44842;SDS011;31884;52.538;13.820;2023-02-15T00:03:52;41.05;;;16.15;;
44842;SDS011;31884;52.538;13.820;2023-02-15T00:06:17;42.15;;;17.27;;
44842;SDS011;31884;52.538;13.820;2023-02-15T00:08:43;38.25;;;15.73;;
44842;SDS011;31884;52.538;13.820;2023-02-15T00:11:10;41.45;;;16.73;;
44842;SDS011;31884;52.538;13.820;2023-02-15T00:13:37;48.72;;;18.90;;
44842;SDS011;31884;52.538;13.820;2023-02-15T00:16:06;50.53;;;19.50;;
44842;SDS011;31884;52.538;13.820;2023-02-15T00:18:33;45.80;;;16.88;;
44842;SDS011;31884;52.538;13.820;2023-02-15T00:21:02;44.53;;;17.33;;
44842;SDS011;31884;52.538;13.820;2023-02-15T00:23:29;47.55;;;17.58;;
44842;SDS011;31884;52.538;13.820;2023-02-15T00:26:07;47.85;;;16.27;;
44842;SDS011;31884;52.538;13.820;2023-02-15T00:28:35;42.90;;;16.85;;
44842;SDS011;31884;52.538;13.820;2023-02-15T00:33:29;40.92;;;15.25;;
44842;SDS011;31884;52.538;13.820;2023-02-15T00:35:56;43.53;;;16.08;;
44842;SDS011;31884;52.538;13.820;2023-02-15T00:38:22;37.17;;;14.95;;
44842;SDS011;31884;52.538;13.820;2023-02-15T00:40:52;35.47;;;13.95;;
44842;SDS011;31884;52.538;13.820;2023-02-15T00:43:18;45.70;;;16.20;;
44842;SDS011;31884;52.538;13.820;2023-02-15T00:45:45;41.40;;;16.98;;
44842;SDS011;31884;52.538;13.820;2023-02-15T00:48:10;46.58;;;16.00;;
44842;SDS011;31884;52.538;13.820;2023-02-15T00:50:36;46.30;;;15.73;;
44842;SDS011;31884;52.538;13.820;2023-02-15T00:53:01;31.85;;;13.57;;
44842;SDS011;31884;52.538;13.820;2023-02-15T00:55:27;42.15;;;15.13;;
44842;SDS011;31884;52.538;13.820;2023-02-15T00:57:52;41.58;;;14.57;;
44842;SDS011;31884;52.538;13.820;2023-02-15T01:00:18;41.47;;;15.05;;
44842;SDS011;31884;52.538;13.820;2023-02-15T01:02:43;36.60;;;13.93;;
44842;SDS011;31884;52.538;13.820;2023-02-15T01:05:09;40.03;;;14.75;;
44842;SDS011;31884;52.538;13.820;2023-02-15T01:07:34;35.47;;;13.80;;
44842;SDS011;31884;52.538;13.820;2023-02-15T01:10:00;36.50;;;14.68;;
44842;SDS011;31884;52.538;13.820;2023-02-15T01:12:25;39.67;;;14.75;;
44842;SDS011;31884;52.538;13.820;2023-02-15T01:14:51;43.75;;;16.40;;
44842;SDS011;31884;52.538;13.820;2023-02-15T01:17:16;52.20;;;16.63;;
44842;SDS011;31884;52.538;13.820;2023-02-15T01:19:42;39.25;;;14.23;;
44842;SDS011;31884;52.538;13.820;2023-02-15T01:22:07;34.00;;;12.70;;
44842;SDS011;31884;52.538;13.820;2023-02-15T01:24:33;33.88;;;12.93;;
44842;SDS011;31884;52.538;13.820;2023-02-15T01:26:58;39.17;;;13.90;;
44842;SDS011;31884;52.538;13.820;2023-02-15T01:29:24;48.28;;;15.20;;
44842;SDS011;31884;52.538;13.820;2023-02-15T01:31:50;40.92;;;14.05;;
44842;SDS011;31884;52.538;13.820;2023-02-15T01:34:15;46.97;;;16.38;;
44842;SDS011;31884;52.538;13.820;2023-02-15T01:36:41;42.20;;;15.15;;
44842;SDS011;31884;52.538;13.820;2023-02-15T01:39:06;42.38;;;14.90;;
44842;SDS011;31884;52.538;13.820;2023-02-15T01:41:32;45.97;;;16.70;;
44842;SDS011;31884;52.538;13.820;2023-02-15T01:43:59;32.75;;;13.57;;
44842;SDS011;31884;52.538;13.820;2023-02-15T01:46:40;51.40;;;16.75;;
44842;SDS011;31884;52.538;13.820;2023-02-15T01:49:16;43.08;;;15.05;;
44842;SDS011;31884;52.538;13.820;2023-02-15T01:51:45;44.40;;;14.77;;
44842;SDS011;31884;52.538;13.820;2023-02-15T01:54:32;42.03;;;16.55;;
44842;SDS011;31884;52.538;13.820;2023-02-15T01:57:02;42.78;;;15.38;;
44842;SDS011;31884;52.538;13.820;2023-02-15T01:59:31;41.42;;;15.25;;
44842;SDS011;31884;52.538;13.820;2023-02-15T02:01:58;41.85;;;16.70;;
44842;SDS011;31884;52.538;13.820;2023-02-15T02:04:35;45.22;;;16.40;;
44842;SDS011;31884;52.538;13.820;2023-02-15T02:07:06;43.15;;;15.73;;
44842;SDS011;31884;52.538;13.820;2023-02-15T02:09:32;49.72;;;16.15;;
44842;SDS011;31884;52.538;13.820;2023-02-15T02:11:58;45.35;;;16.85;;
44842;SDS011;31884;52.538;13.820;2023-02-15T02:14:24;50.25;;;16.27;;
44842;SDS011;31884;52.538;13.820;2023-02-15T02:16:52;47.35;;;16.60;;
44842;SDS011;31884;52.538;13.820;2023-02-15T02:22:35;40.95;;;15.63;;
44842;SDS011;31884;52.538;13.820;2023-02-15T02:33:51;47.80;;;17.08;;
44842;SDS011;31884;52.538;13.820;2023-02-15T02:36:44;50.40;;;15.98;;
44842;SDS011;31884;52.538;13.820;2023-02-15T02:39:26;41.03;;;14.32;;
44842;SDS011;31884;52.538;13.820;2023-02-15T02:42:06;33.65;;;13.90;;
44842;SDS011;31884;52.538;13.820;2023-02-15T02:44:43;38.45;;;13.73;;
44842;SDS011;31884;52.538;13.820;2023-02-15T02:49:52;45.92;;;15.25;;
44842;SDS011;31884;52.538;13.820;2023-02-15T02:52:36;44.70;;;15.75;;
44842;SDS011;31884;52.538;13.820;2023-02-15T02:58:08;43.30;;;15.02;;
44842;SDS011;31884;52.538;13.820;2023-02-15T03:01:02;42.23;;;14.80;;
44842;SDS011;31884;52.538;13.820;2023-02-15T03:03:41;43.88;;;14.77;;
44842;SDS011;31884;52.538;13.820;2023-02-15T03:06:18;53.20;;;17.30;;
44842;SDS011;31884;52.538;13.820;2023-02-15T03:08:50;38.85;;;14.88;;
44842;SDS011;31884;52.538;13.820;2023-02-15T03:11:19;54.50;;;16.92;;
44842;SDS011;31884;52.538;13.820;2023-02-15T03:13:44;47.13;;;16.77;;
44842;SDS011;31884;52.538;13.820;2023-02-15T03:16:13;47.30;;;17.63;;
44842;SDS011;31884;52.538;13.820;2023-02-15T03:18:54;43.50;;;15.35;;
44842;SDS011;31884;52.538;13.820;2023-02-15T03:21:43;52.30;;;16.60;;
44842;SDS011;31884;52.538;13.820;2023-02-15T03:24:23;46.72;;;15.40;;
44842;SDS011;31884;52.538;13.820;2023-02-15T03:26:54;43.40;;;15.27;;
44842;SDS011;31884;52.538;13.820;2023-02-15T03:29:21;40.53;;;14.57;;
44842;SDS011;31884;52.538;13.820;2023-02-15T03:31:52;42.90;;;14.20;;
44842;SDS011;31884;52.538;13.820;2023-02-15T03:34:21;35.05;;;13.25;;
44842;SDS011;31884;52.538;13.820;2023-02-15T03:36:51;44.72;;;16.20;;
44842;SDS011;31884;52.538;13.820;2023-02-15T03:39:26;32.55;;;13.10;;
44842;SDS011;31884;52.538;13.820;2023-02-15T03:44:30;46.95;;;16.90;;
44842;SDS011;31884;52.538;13.820;2023-02-15T03:49:44;51.10;;;16.65;;
44842;SDS011;31884;52.538;13.820;2023-02-15T03:52:29;48.33;;;17.63;;
44842;SDS011;31884;52.538;13.820;2023-02-15T03:54:57;50.53;;;16.10;;
44842;SDS011;31884;52.538;13.820;2023-02-15T03:57:23;43.92;;;15.15;;
44842;SDS011;31884;52.538;13.820;2023-02-15T04:03:20;52.47;;;17.38;;
44842;SDS011;31884;52.538;13.820;2023-02-15T04:05:54;44.20;;;16.00;;
44842;SDS011;31884;52.538;13.820;2023-02-15T04:08:20;53.13;;;18.73;;
44842;SDS011;31884;52.538;13.820;2023-02-15T04:11:05;39.70;;;13.35;;
44842;SDS011;31884;52.538;13.820;2023-02-15T04:13:31;59.63;;;19.45;;
44842;SDS011;31884;52.538;13.820;2023-02-15T04:15:58;51.67;;;17.13;;
44842;SDS011;31884;52.538;13.820;2023-02-15T04:18:31;50.60;;;17.23;;
44842;SDS011;31884;52.538;13.820;2023-02-15T04:21:15;50.20;;;17.27;;
44842;SDS011;31884;52.538;13.820;2023-02-15T04:23:59;57.85;;;18.50;;
44842;SDS011;31884;52.538;13.820;2023-02-15T04:26:43;49.42;;;16.35;;
44842;SDS011;31884;52.538;13.820;2023-02-15T04:29:09;45.15;;;14.88;;
44842;SDS011;31884;52.538;13.820;2023-02-15T04:31:34;50.15;;;16.25;;
44842;SDS011;31884;52.538;13.820;2023-02-15T04:34:00;40.92;;;14.63;;
44842;SDS011;31884;52.538;13.820;2023-02-15T04:36:25;52.75;;;16.90;;
44842;SDS011;31884;52.538;13.820;2023-02-15T04:38:51;50.70;;;15.07;;
44842;SDS011;31884;52.538;13.820;2023-02-15T04:41:16;46.97;;;15.50;;
44842;SDS011;31884;52.538;13.820;2023-02-15T04:43:42;50.72;;;17.17;;
44842;SDS011;31884;52.538;13.820;2023-02-15T04:46:07;53.30;;;16.20;;
44842;SDS011;31884;52.538;13.820;2023-02-15T04:48:33;45.25;;;13.70;;
44842;SDS011;31884;52.538;13.820;2023-02-15T04:50:58;49.17;;;17.55;;
44842;SDS011;31884;52.538;13.820;2023-02-15T04:53:24;46.28;;;16.58;;
44842;SDS011;31884;52.538;13.820;2023-02-15T04:55:49;49.42;;;16.55;;
44842;SDS011;31884;52.538;13.820;2023-02-15T04:58:15;58.30;;;20.50;;
44842;SDS011;31884;52.538;13.820;2023-02-15T05:00:40;60.08;;;18.80;;
44842;SDS011;31884;52.538;13.820;2023-02-15T05:03:06;51.60;;;17.98;;
44842;SDS011;31884;52.538;13.820;2023-02-15T05:05:31;45.35;;;17.38;;
44842;SDS011;31884;52.538;13.820;2023-02-15T05:07:56;55.13;;;18.77;;
44842;SDS011;31884;52.538;13.820;2023-02-15T05:10:22;53.08;;;17.13;;
44842;SDS011;31884;52.538;13.820;2023-02-15T05:12:48;55.38;;;19.08;;
44842;SDS011;31884;52.538;13.820;2023-02-15T05:15:13;53.38;;;17.05;;
44842;SDS011;31884;52.538;13.820;2023-02-15T05:17:39;49.10;;;16.60;;
44842;SDS011;31884;52.538;13.820;2023-02-15T05:20:04;55.58;;;16.33;;
44842;SDS011;31884;52.538;13.820;2023-02-15T05:22:30;54.15;;;19.70;;
44842;SDS011;31884;52.538;13.820;2023-02-15T05:24:56;49.50;;;16.63;;
44842;SDS011;31884;52.538;13.820;2023-02-15T05:27:40;62.10;;;21.50;;
44842;SDS011;31884;52.538;13.820;2023-02-15T05:30:24;62.47;;;21.38;;
44842;SDS011;31884;52.538;13.820;2023-02-15T05:32:50;64.88;;;21.63;;
44842;SDS011;31884;52.538;13.820;2023-02-15T05:35:15;54.08;;;19.88;;
44842;SDS011;31884;52.538;13.820;2023-02-15T05:37:41;67.93;;;23.13;;
44842;SDS011;31884;52.538;13.820;2023-02-15T05:40:07;61.50;;;22.10;;
44842;SDS011;31884;52.538;13.820;2023-02-15T05:42:33;53.42;;;20.10;;
44842;SDS011;31884;52.538;13.820;2023-02-15T05:44:59;44.75;;;16.70;;
44842;SDS011;31884;52.538;13.820;2023-02-15T05:47:24;56.38;;;18.75;;
44842;SDS011;31884;52.538;13.820;2023-02-15T05:49:50;44.22;;;17.23;;
44842;SDS011;31884;52.538;13.820;2023-02-15T05:52:15;56.97;;;19.83;;
44842;SDS011;31884;52.538;13.820;2023-02-15T05:54:41;56.10;;;19.92;;
44842;SDS011;31884;52.538;13.820;2023-02-15T05:57:06;56.65;;;20.55;;
44842;SDS011;31884;52.538;13.820;2023-02-15T05:59:32;54.70;;;19.85;;
44842;SDS011;31884;52.538;13.820;2023-02-15T06:01:57;77.30;;;27.02;;
44842;SDS011;31884;52.538;13.820;2023-02-15T06:04:23;70.22;;;24.13;;
44842;SDS011;31884;52.538;13.820;2023-02-15T06:06:48;64.28;;;23.27;;
44842;SDS011;31884;52.538;13.820;2023-02-15T06:09:14;71.47;;;24.05;;
44842;SDS011;31884;52.538;13.820;2023-02-15T06:11:39;54.15;;;18.08;;
44842;SDS011;31884;52.538;13.820;2023-02-15T06:14:05;60.40;;;21.05;;
44842;SDS011;31884;52.538;13.820;2023-02-15T06:16:31;61.38;;;20.45;;
44842;SDS011;31884;52.538;13.820;2023-02-15T06:18:56;63.17;;;23.05;;
44842;SDS011;31884;52.538;13.820;2023-02-15T06:21:24;60.95;;;20.35;;
44842;SDS011;31884;52.538;13.820;2023-02-15T06:23:49;61.53;;;21.33;;
44842;SDS011;31884;52.538;13.820;2023-02-15T06:26:14;61.65;;;21.30;;
44842;SDS011;31884;52.538;13.820;2023-02-15T06:28:40;74.05;;;26.85;;
44842;SDS011;31884;52.538;13.820;2023-02-15T06:31:06;57.65;;;23.08;;
44842;SDS011;31884;52.538;13.820;2023-02-15T06:33:31;55.63;;;23.10;;
44842;SDS011;31884;52.538;13.820;2023-02-15T06:35:58;75.80;;;28.88;;
44842;SDS011;31884;52.538;13.820;2023-02-15T06:38:24;74.88;;;27.30;;
44842;SDS011;31884;52.538;13.820;2023-02-15T06:40:50;63.80;;;24.38;;
44842;SDS011;31884;52.538;13.820;2023-02-15T06:43:15;66.57;;;26.50;;
44842;SDS011;31884;52.538;13.820;2023-02-15T06:45:41;79.63;;;30.00;;
44842;SDS011;31884;52.538;13.820;2023-02-15T06:48:07;79.45;;;28.95;;
44842;SDS011;31884;52.538;13.820;2023-02-15T06:50:33;69.18;;;28.55;;
44842;SDS011;31884;52.538;13.820;2023-02-15T06:52:59;74.55;;;26.67;;
44842;SDS011;31884;52.538;13.820;2023-02-15T06:55:24;88.20;;;33.08;;
44842;SDS011;31884;52.538;13.820;2023-02-15T06:57:50;73.78;;;28.67;;
44842;SDS011;31884;52.538;13.820;2023-02-15T07:00:16;79.43;;;31.88;;
44842;SDS011;31884;52.538;13.820;2023-02-15T07:02:43;75.28;;;27.63;;
44842;SDS011;31884;52.538;13.820;2023-02-15T07:05:09;102.53;;;31.92;;
44842;SDS011;31884;52.538;13.820;2023-02-15T07:07:34;76.80;;;26.27;;
44842;SDS011;31884;52.538;13.820;2023-02-15T07:10:00;119.75;;;33.95;;
44842;SDS011;31884;52.538;13.820;2023-02-15T07:12:25;135.88;;;33.67;;
44842;SDS011;31884;52.538;13.820;2023-02-15T07:15:06;109.05;;;34.88;;
44842;SDS011;31884;52.538;13.820;2023-02-15T07:17:34;81.07;;;30.50;;
44842;SDS011;31884;52.538;13.820;2023-02-15T07:19:59;89.68;;;29.83;;
44842;SDS011;31884;52.538;13.820;2023-02-15T07:22:25;89.60;;;29.67;;
44842;SDS011;31884;52.538;13.820;2023-02-15T07:24:50;76.72;;;27.50;;
44842;SDS011;31884;52.538;13.820;2023-02-15T07:27:19;87.07;;;30.98;;
44842;SDS011;31884;52.538;13.820;2023-02-15T07:29:45;81.43;;;28.13;;
44842;SDS011;31884;52.538;13.820;2023-02-15T07:32:10;77.97;;;26.85;;
44842;SDS011;31884;52.538;13.820;2023-02-15T07:34:36;72.93;;;25.17;;
44842;SDS011;31884;52.538;13.820;2023-02-15T07:37:01;85.57;;;26.10;;
44842;SDS011;31884;52.538;13.820;2023-02-15T07:39:27;78.60;;;26.45;;
44842;SDS011;31884;52.538;13.820;2023-02-15T07:41:52;74.85;;;26.05;;
44842;SDS011;31884;52.538;13.820;2023-02-15T07:44:18;70.53;;;25.88;;
44842;SDS011;31884;52.538;13.820;2023-02-15T07:46:43;67.95;;;24.70;;
44842;SDS011;31884;52.538;13.820;2023-02-15T07:49:09;76.75;;;25.33;;
44842;SDS011;31884;52.538;13.820;2023-02-15T07:51:34;74.82;;;23.55;;
44842;SDS011;31884;52.538;13.820;2023-02-15T07:54:00;73.97;;;25.73;;
44842;SDS011;31884;52.538;13.820;2023-02-15T07:56:25;68.40;;;26.90;;
44842;SDS011;31884;52.538;13.820;2023-02-15T07:58:51;84.65;;;29.67;;
44842;SDS011;31884;52.538;13.820;2023-02-15T08:01:17;123.95;;;31.23;;
44842;SDS011;31884;52.538;13.820;2023-02-15T08:03:51;95.75;;;31.50;;
44842;SDS011;31884;52.538;13.820;2023-02-15T08:06:18;70.90;;;27.38;;
44842;SDS011;31884;52.538;13.820;2023-02-15T08:08:44;80.78;;;25.83;;
44842;SDS011;31884;52.538;13.820;2023-02-15T08:14:08;96.20;;;29.55;;
44842;SDS011;31884;52.538;13.820;2023-02-15T08:16:51;92.03;;;27.65;;
44842;SDS011;31884;52.538;13.820;2023-02-15T08:21:46;104.65;;;29.25;;
44842;SDS011;31884;52.538;13.820;2023-02-15T08:24:17;86.57;;;27.95;;
44842;SDS011;31884;52.538;13.820;2023-02-15T08:26:44;150.27;;;32.00;;
44842;SDS011;31884;52.538;13.820;2023-02-15T08:29:11;108.63;;;27.60;;
44842;SDS011;31884;52.538;13.820;2023-02-15T08:31:38;66.00;;;24.52;;
44842;SDS011;31884;52.538;13.820;2023-02-15T08:34:05;82.40;;;25.90;;
44842;SDS011;31884;52.538;13.820;2023-02-15T08:36:31;67.43;;;19.17;;
44842;SDS011;31884;52.538;13.820;2023-02-15T08:38:58;61.08;;;21.13;;
44842;SDS011;31884;52.538;13.820;2023-02-15T08:41:25;85.75;;;23.38;;
44842;SDS011;31884;52.538;13.820;2023-02-15T08:43:54;83.18;;;22.80;;
44842;SDS011;31884;52.538;13.820;2023-02-15T08:46:22;74.38;;;22.90;;
44842;SDS011;31884;52.538;13.820;2023-02-15T08:48:49;65.88;;;22.50;;
44842;SDS011;31884;52.538;13.820;2023-02-15T08:51:16;73.30;;;25.92;;
44842;SDS011;31884;52.538;13.820;2023-02-15T08:53:44;80.97;;;23.83;;
44842;SDS011;31884;52.538;13.820;2023-02-15T08:56:13;66.97;;;22.60;;
44842;SDS011;31884;52.538;13.820;2023-02-15T08:58:40;62.10;;;22.48;;
44842;SDS011;31884;52.538;13.820;2023-02-15T09:01:10;56.38;;;21.25;;
44842;SDS011;31884;52.538;13.820;2023-02-15T09:03:37;49.42;;;19.05;;
44842;SDS011;31884;52.538;13.820;2023-02-15T09:06:03;58.60;;;23.17;;
44842;SDS011;31884;52.538;13.820;2023-02-15T09:08:30;74.53;;;24.83;;
44842;SDS011;31884;52.538;13.820;2023-02-15T09:11:04;65.97;;;25.15;;
44842;SDS011;31884;52.538;13.820;2023-02-15T09:13:31;63.75;;;24.50;;
44842;SDS011;31884;52.538;13.820;2023-02-15T09:16:00;62.08;;;22.13;;
44842;SDS011;31884;52.538;13.820;2023-02-15T09:18:30;84.20;;;24.38;;
44842;SDS011;31884;52.538;13.820;2023-02-15T09:21:03;83.38;;;27.13;;
44842;SDS011;31884;52.538;13.820;2023-02-15T09:23:38;65.25;;;22.65;;
44842;SDS011;31884;52.538;13.820;2023-02-15T09:26:05;71.88;;;25.45;;
44842;SDS011;31884;52.538;13.820;2023-02-15T09:28:35;71.45;;;25.52;;
44842;SDS011;31884;52.538;13.820;2023-02-15T09:31:15;78.40;;;23.92;;
44842;SDS011;31884;52.538;13.820;2023-02-15T09:33:43;118.53;;;30.48;;
44842;SDS011;31884;52.538;13.820;2023-02-15T09:36:52;96.82;;;27.52;;
44842;SDS011;31884;52.538;13.820;2023-02-15T09:39:01;71.90;;;26.48;;
44842;SDS011;31884;52.538;13.820;2023-02-15T09:44:27;62.10;;;22.33;;
44842;SDS011;31884;52.538;13.820;2023-02-15T09:47:19;68.88;;;23.45;;
44842;SDS011;31884;52.538;13.820;2023-02-15T09:50:13;68.60;;;22.83;;
44842;SDS011;31884;52.538;13.820;2023-02-15T09:55:45;68.47;;;20.25;;
44842;SDS011;31884;52.538;13.820;2023-02-15T09:58:31;58.03;;;22.83;;
44842;SDS011;31884;52.538;13.820;2023-02-15T10:10:02;77.25;;;23.92;;
44842;SDS011;31884;52.538;13.820;2023-02-15T10:15:44;62.63;;;22.45;;
44842;SDS011;31884;52.538;13.820;2023-02-15T10:24:27;49.67;;;21.02;;
44842;SDS011;31884;52.538;13.820;2023-02-15T10:26:55;68.43;;;23.60;;
44842;SDS011;31884;52.538;13.820;2023-02-15T10:34:52;50.78;;;21.92;;
44842;SDS011;31884;52.538;13.820;2023-02-15T10:38:00;47.70;;;19.75;;
44842;SDS011;31884;52.538;13.820;2023-02-15T10:40:34;58.17;;;23.80;;
44842;SDS011;31884;52.538;13.820;2023-02-15T10:43:24;51.85;;;21.13;;
44842;SDS011;31884;52.538;13.820;2023-02-15T10:49:01;40.92;;;17.60;;
44842;SDS011;31884;52.538;13.820;2023-02-15T10:55:08;38.13;;;16.77;;
44842;SDS011;31884;52.538;13.820;2023-02-15T10:57:52;43.30;;;19.38;;
44842;SDS011;31884;52.538;13.820;2023-02-15T11:04:05;42.10;;;19.00;;
44842;SDS011;31884;52.538;13.820;2023-02-15T11:06:32;43.60;;;17.73;;
44842;SDS011;31884;52.538;13.820;2023-02-15T11:09:02;41.08;;;18.60;;
44842;SDS011;31884;52.538;13.820;2023-02-15T11:11:34;39.80;;;17.95;;
44842;SDS011;31884;52.538;13.820;2023-02-15T11:14:09;47.35;;;22.13;;
44842;SDS011;31884;52.538;13.820;2023-02-15T11:16:40;46.80;;;21.13;;
44842;SDS011;31884;52.538;13.820;2023-02-15T11:19:21;50.72;;;21.98;;
44842;SDS011;31884;52.538;13.820;2023-02-15T11:21:53;47.17;;;22.45;;
44842;SDS011;31884;52.538;13.820;2023-02-15T11:24:24;45.80;;;21.58;;
44842;SDS011;31884;52.538;13.820;2023-02-15T11:27:03;48.22;;;23.25;;
44842;SDS011;31884;52.538;13.820;2023-02-15T11:30:22;49.63;;;24.58;;
44842;SDS011;31884;52.538;13.820;2023-02-15T11:32:44;51.40;;;22.30;;
44842;SDS011;31884;52.538;13.820;2023-02-15T11:37:40;45.38;;;21.25;;
44842;SDS011;31884;52.538;13.820;2023-02-15T11:40:25;39.55;;;20.15;;
44842;SDS011;31884;52.538;13.820;2023-02-15T11:42:55;38.97;;;18.27;;
44842;SDS011;31884;52.538;13.820;2023-02-15T11:45:32;46.05;;;20.88;;
44842;SDS011;31884;52.538;13.820;2023-02-15T11:50:26;41.05;;;19.70;;
44842;SDS011;31884;52.538;13.820;2023-02-15T11:52:56;38.70;;;18.23;;
44842;SDS011;31884;52.538;13.820;2023-02-15T11:55:26;55.03;;;24.80;;
44842;SDS011;31884;52.538;13.820;2023-02-15T11:57:54;64.20;;;28.60;;
44842;SDS011;31884;52.538;13.820;2023-02-15T12:00:34;73.93;;;31.00;;
44842;SDS011;31884;52.538;13.820;2023-02-15T12:03:14;72.38;;;29.65;;
44842;SDS011;31884;52.538;13.820;2023-02-15T12:05:44;62.47;;;26.70;;
44842;SDS011;31884;52.538;13.820;2023-02-15T12:08:16;55.38;;;25.77;;
44842;SDS011;31884;52.538;13.820;2023-02-15T12:11:30;64.13;;;26.38;;
44842;SDS011;31884;52.538;13.820;2023-02-15T12:13:37;55.22;;;24.20;;
44842;SDS011;31884;52.538;13.820;2023-02-15T12:16:20;60.05;;;26.60;;
44842;SDS011;31884;52.538;13.820;2023-02-15T12:18:45;52.67;;;24.70;;
44842;SDS011;31884;52.538;13.820;2023-02-15T12:21:23;50.67;;;23.52;;
44842;SDS011;31884;52.538;13.820;2023-02-15T12:23:51;48.75;;;22.13;;
44842;SDS011;31884;52.538;13.820;2023-02-15T12:26:25;52.10;;;24.08;;
44842;SDS011;31884;52.538;13.820;2023-02-15T12:28:53;46.40;;;21.80;;
44842;SDS011;31884;52.538;13.820;2023-02-15T12:31:32;47.20;;;20.98;;
44842;SDS011;31884;52.538;13.820;2023-02-15T12:34:07;45.70;;;20.92;;
44842;SDS011;31884;52.538;13.820;2023-02-15T12:36:54;44.70;;;20.67;;
44842;SDS011;31884;52.538;13.820;2023-02-15T12:39:30;43.42;;;19.70;;
44842;SDS011;31884;52.538;13.820;2023-02-15T12:41:57;45.60;;;23.20;;
44842;SDS011;31884;52.538;13.820;2023-02-15T12:44:25;42.70;;;21.40;;
44842;SDS011;31884;52.538;13.820;2023-02-15T12:47:01;40.03;;;19.02;;
44842;SDS011;31884;52.538;13.820;2023-02-15T12:49:42;34.20;;;17.15;;
44842;SDS011;31884;52.538;13.820;2023-02-15T12:54:43;34.28;;;18.55;;
44842;SDS011;31884;52.538;13.820;2023-02-15T12:57:42;36.70;;;19.25;;
44842;SDS011;31884;52.538;13.820;2023-02-15T13:00:04;42.17;;;20.27;;
44842;SDS011;31884;52.538;13.820;2023-02-15T13:02:36;34.13;;;17.00;;
44842;SDS011;31884;52.538;13.820;2023-02-15T13:05:17;36.10;;;17.40;;
44842;SDS011;31884;52.538;13.820;2023-02-15T13:07:56;39.00;;;19.55;;
44842;SDS011;31884;52.538;13.820;2023-02-15T13:12:53;38.15;;;19.77;;
44842;SDS011;31884;52.538;13.820;2023-02-15T13:15:26;40.75;;;20.35;;
44842;SDS011;31884;52.538;13.820;2023-02-15T13:18:05;36.78;;;18.48;;
44842;SDS011;31884;52.538;13.820;2023-02-15T13:20:37;37.38;;;20.63;;
44842;SDS011;31884;52.538;13.820;2023-02-15T13:23:06;37.70;;;19.00;;
44842;SDS011;31884;52.538;13.820;2023-02-15T13:25:46;35.45;;;18.50;;
44842;SDS011;31884;52.538;13.820;2023-02-15T13:28:15;30.77;;;16.30;;
44842;SDS011;31884;52.538;13.820;2023-02-15T13:30:44;32.97;;;16.52;;
44842;SDS011;31884;52.538;13.820;2023-02-15T13:33:15;29.05;;;16.45;;
44842;SDS011;31884;52.538;13.820;2023-02-15T13:35:56;29.48;;;15.20;;
44842;SDS011;31884;52.538;13.820;2023-02-15T13:38:44;30.38;;;15.57;;
44842;SDS011;31884;52.538;13.820;2023-02-15T13:41:23;36.40;;;16.63;;
44842;SDS011;31884;52.538;13.820;2023-02-15T13:43:57;37.42;;;19.13;;
44842;SDS011;31884;52.538;13.820;2023-02-15T13:49:32;33.70;;;18.27;;
44842;SDS011;31884;52.538;13.820;2023-02-15T13:52:08;32.30;;;17.15;;
44842;SDS011;31884;52.538;13.820;2023-02-15T14:00:49;32.13;;;17.88;;
44842;SDS011;31884;52.538;13.820;2023-02-15T14:06:00;26.70;;;15.00;;
44842;SDS011;31884;52.538;13.820;2023-02-15T14:08:48;25.15;;;13.88;;
44842;SDS011;31884;52.538;13.820;2023-02-15T14:11:27;22.85;;;12.40;;
44842;SDS011;31884;52.538;13.820;2023-02-15T14:20:02;24.67;;;11.52;;
44842;SDS011;31884;52.538;13.820;2023-02-15T14:22:44;19.77;;;11.57;;
44842;SDS011;31884;52.538;13.820;2023-02-15T14:25:22;21.13;;;12.05;;
44842;SDS011;31884;52.538;13.820;2023-02-15T14:28:06;20.80;;;10.93;;
44842;SDS011;31884;52.538;13.820;2023-02-15T14:30:41;22.98;;;12.48;;
44842;SDS011;31884;52.538;13.820;2023-02-15T14:33:22;27.30;;;13.10;;
44842;SDS011;31884;52.538;13.820;2023-02-15T14:36:03;24.45;;;12.20;;
44842;SDS011;31884;52.538;13.820;2023-02-15T14:38:40;25.63;;;13.50;;
44842;SDS011;31884;52.538;13.820;2023-02-15T14:41:12;20.40;;;12.50;;
44842;SDS011;31884;52.538;13.820;2023-02-15T14:47:03;19.60;;;11.23;;
44842;SDS011;31884;52.538;13.820;2023-02-15T14:49:38;18.48;;;10.27;;
44842;SDS011;31884;52.538;13.820;2023-02-15T15:04:45;19.95;;;10.68;;
44842;SDS011;31884;52.538;13.820;2023-02-15T15:07:24;21.23;;;10.77;;
44842;SDS011;31884;52.538;13.820;2023-02-15T15:12:58;18.55;;;10.25;;
44842;SDS011;31884;52.538;13.820;2023-02-15T15:18:49;24.02;;;11.82;;
44842;SDS011;31884;52.538;13.820;2023-02-15T15:35:26;24.35;;;12.15;;
44842;SDS011;31884;52.538;13.820;2023-02-15T15:41:01;22.58;;;11.70;;
44842;SDS011;31884;52.538;13.820;2023-02-15T15:43:46;21.60;;;10.93;;
44842;SDS011;31884;52.538;13.820;2023-02-15T15:49:21;23.33;;;11.32;;
44842;SDS011;31884;52.538;13.820;2023-02-15T15:51:49;19.98;;;10.38;;
44842;SDS011;31884;52.538;13.820;2023-02-15T15:54:16;22.88;;;11.02;;
44842;SDS011;31884;52.538;13.820;2023-02-15T15:56:44;20.60;;;11.52;;
44842;SDS011;31884;52.538;13.820;2023-02-15T15:59:17;24.73;;;11.45;;
44842;SDS011;31884;52.538;13.820;2023-02-15T16:01:46;26.08;;;12.65;;
44842;SDS011;31884;52.538;13.820;2023-02-15T16:04:13;22.58;;;11.20;;
44842;SDS011;31884;52.538;13.820;2023-02-15T16:06:54;25.33;;;11.40;;
44842;SDS011;31884;52.538;13.820;2023-02-15T16:09:23;17.48;;;10.30;;
44842;SDS011;31884;52.538;13.820;2023-02-15T16:11:51;19.25;;;10.18;;
44842;SDS011;31884;52.538;13.820;2023-02-15T16:14:40;28.70;;;11.17;;
44842;SDS011;31884;52.538;13.820;2023-02-15T16:17:13;22.38;;;10.75;;
44842;SDS011;31884;52.538;13.820;2023-02-15T16:19:43;19.65;;;10.68;;
44842;SDS011;31884;52.538;13.820;2023-02-15T16:22:11;19.50;;;10.18;;
44842;SDS011;31884;52.538;13.820;2023-02-15T16:29:51;22.92;;;10.82;;
44842;SDS011;31884;52.538;13.820;2023-02-15T16:32:18;21.27;;;10.82;;
44842;SDS011;31884;52.538;13.820;2023-02-15T16:34:53;20.05;;;10.70;;
44842;SDS011;31884;52.538;13.820;2023-02-15T16:37:24;22.95;;;11.40;;
44842;SDS011;31884;52.538;13.820;2023-02-15T16:39:52;21.55;;;11.20;;
44842;SDS011;31884;52.538;13.820;2023-02-15T16:42:19;23.65;;;12.05;;
44842;SDS011;31884;52.538;13.820;2023-02-15T16:44:45;25.00;;;11.05;;
44842;SDS011;31884;52.538;13.820;2023-02-15T16:47:16;30.60;;;12.13;;
44842;SDS011;31884;52.538;13.820;2023-02-15T16:49:51;29.70;;;12.82;;
44842;SDS011;31884;52.538;13.820;2023-02-15T16:52:20;24.58;;;11.68;;
44842;SDS011;31884;52.538;13.820;2023-02-15T16:54:50;29.50;;;13.25;;
44842;SDS011;31884;52.538;13.820;2023-02-15T16:57:28;32.10;;;13.32;;
44842;SDS011;31884;52.538;13.820;2023-02-15T17:00:02;27.33;;;12.05;;